createdAt,value
2022-10-14T00:00:34.902Z,0.30
2022-10-14T00:03:02.458Z,0.30
2022-10-14T00:05:29.923Z,0.40
2022-10-14T00:07:57.378Z,0.30
2022-10-14T00:10:24.924Z,0.38
2022-10-14T00:12:52.394Z,0.30
2022-10-14T00:15:21.266Z,0.30
2022-10-14T00:17:48.934Z,0.40
2022-10-14T00:20:16.409Z,0.30
2022-10-14T00:22:43.851Z,0.30
2022-10-14T00:25:11.336Z,0.30
2022-10-14T00:27:39.287Z,0.30
2022-10-14T00:30:11.464Z,0.30
2022-10-14T00:32:40.381Z,0.30
2022-10-14T00:35:09.972Z,0.30
2022-10-14T00:37:37.484Z,0.35
2022-10-14T00:40:06.731Z,0.30
2022-10-14T00:42:34.248Z,0.30
2022-10-14T00:45:03.990Z,0.30
2022-10-14T00:47:32.314Z,0.30
2022-10-14T00:50:03.929Z,0.30
2022-10-14T00:52:31.621Z,0.30
2022-10-14T00:55:01.403Z,0.30
2022-10-14T00:57:29.081Z,0.30
2022-10-14T00:59:59.822Z,0.30
2022-10-14T01:02:27.395Z,0.30
2022-10-14T01:04:54.902Z,0.30
2022-10-14T01:07:30.278Z,0.30
2022-10-14T01:10:01.626Z,0.30
2022-10-14T01:12:34.270Z,0.30
2022-10-14T01:15:08.299Z,0.20
2022-10-14T01:17:44.826Z,0.30
2022-10-14T01:20:28.844Z,0.30
2022-10-14T01:23:06.294Z,0.30
2022-10-14T01:25:34.952Z,0.30
2022-10-14T01:28:10.523Z,0.40
2022-10-14T01:30:42.482Z,0.30
2022-10-14T01:33:12.687Z,0.30
2022-10-14T01:35:48.965Z,0.30
2022-10-14T01:38:20.096Z,0.30
2022-10-14T01:40:51.259Z,0.40
2022-10-14T01:43:21.808Z,0.30
2022-10-14T01:45:50.964Z,0.40
2022-10-14T01:48:19.137Z,0.30
2022-10-14T01:50:48.468Z,0.30
2022-10-14T01:53:18.964Z,0.30
2022-10-14T01:55:48.241Z,0.38
2022-10-14T01:58:18.765Z,0.30
2022-10-14T02:00:47.800Z,0.30
2022-10-14T02:03:16.693Z,0.30
2022-10-14T02:05:47.697Z,0.30
2022-10-14T02:08:20.845Z,0.30
2022-10-14T02:10:59.558Z,0.40
2022-10-14T02:13:35.339Z,0.40
2022-10-14T02:16:07.050Z,0.30
2022-10-14T02:18:39.419Z,0.30
2022-10-14T02:21:33.404Z,0.40
2022-10-14T02:24:05.425Z,0.30
2022-10-14T02:26:33.243Z,0.30
2022-10-14T02:29:02.437Z,0.30
2022-10-14T02:31:30.351Z,0.40
2022-10-14T02:34:00.006Z,0.30
2022-10-14T02:36:29.900Z,0.30
2022-10-14T02:38:59.129Z,0.30
2022-10-14T02:41:28.734Z,0.30
2022-10-14T02:43:56.170Z,0.30
2022-10-14T02:46:24.107Z,0.38
2022-10-14T02:48:51.755Z,0.40
2022-10-14T02:51:21.386Z,0.40
2022-10-14T02:53:48.871Z,0.30
2022-10-14T02:56:17.115Z,0.30
2022-10-14T02:58:44.696Z,0.30
2022-10-14T03:01:12.224Z,0.30
2022-10-14T03:03:39.796Z,0.30
2022-10-14T03:06:07.822Z,0.30
2022-10-14T03:08:37.020Z,0.30
2022-10-14T03:11:06.721Z,0.30
2022-10-14T03:13:35.227Z,0.30
2022-10-14T03:16:02.773Z,0.30
2022-10-14T03:18:30.564Z,0.30
2022-10-14T03:21:04.473Z,0.30
2022-10-14T03:23:39.346Z,0.40
2022-10-14T03:26:10.626Z,0.30
2022-10-14T03:28:43.399Z,0.30
2022-10-14T03:31:19.588Z,0.30
2022-10-14T03:34:22.791Z,0.40
2022-10-14T03:36:56.483Z,0.30
2022-10-14T03:39:27.034Z,0.30
2022-10-14T03:41:59.529Z,0.40
2022-10-14T03:44:34.613Z,0.30
2022-10-14T03:47:21.266Z,0.30
2022-10-14T03:49:49.191Z,0.30
2022-10-14T03:52:23.833Z,0.30
2022-10-14T03:55:04.119Z,0.30
2022-10-14T03:57:31.743Z,0.30
2022-10-14T04:00:00.901Z,0.30
2022-10-14T04:02:43.279Z,0.22
2022-10-14T04:05:40.145Z,0.30
2022-10-14T04:08:15.735Z,0.30
2022-10-14T04:10:53.923Z,0.30
2022-10-14T04:13:22.411Z,0.40
2022-10-14T04:15:49.928Z,0.40
2022-10-14T04:18:22.009Z,0.30
2022-10-14T04:20:51.688Z,0.30
2022-10-14T04:23:22.945Z,0.30
2022-10-14T04:25:56.371Z,0.30
2022-10-14T04:28:25.154Z,0.30
2022-10-14T04:31:09.405Z,0.30
2022-10-14T04:33:49.788Z,0.30
2022-10-14T04:36:23.295Z,0.30
2022-10-14T04:38:50.929Z,0.30
2022-10-14T04:41:20.486Z,0.30
2022-10-14T04:43:50.101Z,0.30
2022-10-14T04:46:27.835Z,0.40
2022-10-14T04:48:55.620Z,0.30
2022-10-14T04:51:27.174Z,0.30
2022-10-14T04:54:30.777Z,0.30
2022-10-14T04:57:02.034Z,0.30
2022-10-14T04:59:30.604Z,0.20
2022-10-14T05:02:01.166Z,0.35
2022-10-14T05:04:38.128Z,0.38
2022-10-14T05:07:06.778Z,0.30
2022-10-14T05:09:34.621Z,0.30
2022-10-14T05:12:04.179Z,0.30
2022-10-14T05:14:40.491Z,0.30
2022-10-14T05:17:16.164Z,0.30
2022-10-14T05:19:43.900Z,0.40
2022-10-14T05:22:11.776Z,0.30
2022-10-14T05:24:43.707Z,0.30
2022-10-14T05:27:13.028Z,0.30
2022-10-14T05:29:40.996Z,0.20
2022-10-14T05:32:33.456Z,0.30
2022-10-14T05:35:04.524Z,0.30
2022-10-14T05:37:37.429Z,0.30
2022-10-14T05:40:05.629Z,0.30
2022-10-14T05:42:37.551Z,0.35
2022-10-14T05:45:05.868Z,0.40
2022-10-14T05:47:37.568Z,0.30
2022-10-14T05:50:14.184Z,0.30
2022-10-14T05:52:44.610Z,0.30
2022-10-14T05:55:19.292Z,0.30
2022-10-14T05:57:49.930Z,0.30
2022-10-14T06:00:24.817Z,0.32
2022-10-14T06:03:01.947Z,0.30
2022-10-14T06:05:29.716Z,0.40
2022-10-14T06:07:57.226Z,0.30
2022-10-14T06:10:24.745Z,0.30
2022-10-14T06:12:53.549Z,0.30
2022-10-14T06:15:21.793Z,0.30
2022-10-14T06:17:50.227Z,0.32
2022-10-14T06:20:17.867Z,0.30
2022-10-14T06:22:45.584Z,0.30
2022-10-14T06:25:13.028Z,0.30
2022-10-14T06:27:40.464Z,0.30
2022-10-14T06:30:10.224Z,0.30
2022-10-14T06:32:37.682Z,0.30
2022-10-14T06:35:05.793Z,0.30
2022-10-14T06:37:33.290Z,0.30
2022-10-14T06:40:00.793Z,0.30
2022-10-14T06:42:28.313Z,0.30
2022-10-14T06:44:57.365Z,0.30
2022-10-14T06:47:26.169Z,0.20
2022-10-14T06:49:53.654Z,0.30
2022-10-14T06:52:21.471Z,0.30
2022-10-14T06:54:49.280Z,0.20
2022-10-14T06:57:16.977Z,0.28
2022-10-14T06:59:44.482Z,0.30
2022-10-14T07:02:12.120Z,0.30
2022-10-14T07:04:41.105Z,0.30
2022-10-14T07:07:08.946Z,0.30
2022-10-14T07:09:36.580Z,0.20
2022-10-14T07:12:04.122Z,0.20
2022-10-14T07:14:34.217Z,0.30
2022-10-14T07:17:01.733Z,0.30
2022-10-14T07:19:29.177Z,0.20
2022-10-14T07:21:58.082Z,0.20
2022-10-14T07:24:25.584Z,0.30
2022-10-14T07:26:53.193Z,0.20
2022-10-14T07:29:20.866Z,0.20
2022-10-14T07:31:48.681Z,0.20
2022-10-14T07:34:16.301Z,0.20
2022-10-14T07:36:43.826Z,0.20
2022-10-14T07:39:12.710Z,0.20
2022-10-14T07:41:40.574Z,0.20
2022-10-14T07:44:09.339Z,0.20
2022-10-14T07:46:38.243Z,0.20
2022-10-14T07:49:06.862Z,0.20
2022-10-14T07:51:34.613Z,0.20
2022-10-14T07:54:03.039Z,0.15
2022-10-14T07:56:31.966Z,0.20
2022-10-14T07:59:00.411Z,0.20
2022-10-14T08:01:27.874Z,0.10
2022-10-14T08:03:55.474Z,0.10
2022-10-14T08:06:23.255Z,0.10
2022-10-14T08:08:50.745Z,0.00
2022-10-14T08:11:19.286Z,0.10
2022-10-14T08:13:48.655Z,0.10
2022-10-14T08:16:17.251Z,0.00
2022-10-14T08:18:45.039Z,0.10
2022-10-14T08:21:12.712Z,0.10
2022-10-14T08:23:40.383Z,0.00
2022-10-14T08:26:16.277Z,0.00
2022-10-14T08:28:43.816Z,0.00
2022-10-14T08:31:12.736Z,0.00
2022-10-14T08:33:40.308Z,0.00
2022-10-14T08:36:08.264Z,0.00
2022-10-14T08:38:35.858Z,0.00
2022-10-14T08:41:06.177Z,0.00
2022-10-14T08:43:37.248Z,0.00
2022-10-14T08:46:08.045Z,0.00
2022-10-14T08:48:37.888Z,0.00
2022-10-14T08:51:07.938Z,0.00
2022-10-14T08:53:38.546Z,0.00
2022-10-14T08:56:07.054Z,0.00
2022-10-14T08:58:35.202Z,0.00
2022-10-14T09:01:04.314Z,0.00
2022-10-14T09:03:34.014Z,0.10
2022-10-14T09:06:04.496Z,0.10
2022-10-14T09:08:34.164Z,0.20
2022-10-14T09:11:01.719Z,0.20
2022-10-14T09:13:31.699Z,0.20
2022-10-14T09:16:03.053Z,0.20
2022-10-14T09:18:33.876Z,0.20
2022-10-14T09:21:03.198Z,0.20
2022-10-14T09:23:30.663Z,0.20
2022-10-14T09:25:59.291Z,0.22
2022-10-14T09:28:34.668Z,0.20
2022-10-14T09:31:02.187Z,0.20
2022-10-14T09:33:29.868Z,0.20
2022-10-14T09:38:27.956Z,0.15
2022-10-14T09:40:57.083Z,0.20
2022-10-14T09:43:26.000Z,0.10
2022-10-14T09:45:56.518Z,0.20
2022-10-14T09:48:32.254Z,0.20
2022-10-14T09:51:00.948Z,0.20
2022-10-14T09:53:31.683Z,0.20
2022-10-14T09:56:00.613Z,0.20
2022-10-14T09:58:39.627Z,0.10
2022-10-14T10:01:12.744Z,0.20
2022-10-14T10:03:41.215Z,0.20
2022-10-14T10:06:09.749Z,0.20
2022-10-14T10:08:39.900Z,0.17
2022-10-14T10:11:09.622Z,0.30
2022-10-14T10:13:40.394Z,0.20
2022-10-14T10:16:09.538Z,0.20
2022-10-14T10:18:37.006Z,0.20
2022-10-14T10:21:07.722Z,0.20
2022-10-14T10:23:36.725Z,0.20
2022-10-14T10:26:20.877Z,0.20
2022-10-14T10:28:49.801Z,0.20
2022-10-14T10:31:22.111Z,0.20
2022-10-14T10:33:54.153Z,0.10
2022-10-14T10:36:23.863Z,0.20
2022-10-14T10:39:02.919Z,0.20
2022-10-14T10:41:48.457Z,0.20
2022-10-14T10:44:40.288Z,0.20
2022-10-14T10:47:16.895Z,0.20
2022-10-14T10:49:53.576Z,0.20
2022-10-14T10:52:24.637Z,0.20
2022-10-14T10:54:55.836Z,0.20
2022-10-14T10:57:32.099Z,0.20
2022-10-14T11:00:03.052Z,0.10
2022-10-14T11:02:49.485Z,0.20
2022-10-14T11:05:19.180Z,0.20
2022-10-14T11:08:22.405Z,0.10
2022-10-14T11:11:11.599Z,0.28
2022-10-14T11:13:44.139Z,0.10
2022-10-14T11:16:16.591Z,0.20
2022-10-14T11:18:47.483Z,0.10
2022-10-14T11:21:18.383Z,0.20
2022-10-14T11:23:59.376Z,0.20
2022-10-14T11:29:05.218Z,0.20
2022-10-14T11:31:39.102Z,0.20
2022-10-14T11:34:20.101Z,0.20
2022-10-14T11:36:52.251Z,0.20
2022-10-14T11:39:26.773Z,0.20
2022-10-14T11:42:04.905Z,0.20
2022-10-14T11:47:06.364Z,0.20
2022-10-14T11:49:35.624Z,0.20
2022-10-14T11:52:04.573Z,0.20
2022-10-14T11:54:57.534Z,0.20
2022-10-14T11:57:27.292Z,0.20
2022-10-14T11:59:56.078Z,0.20
2022-10-14T12:02:30.692Z,0.20
2022-10-14T12:05:02.773Z,0.20
2022-10-14T12:07:33.138Z,0.20
2022-10-14T12:10:03.007Z,0.20
2022-10-14T12:12:31.755Z,0.20
2022-10-14T12:15:00.205Z,0.10
2022-10-14T12:17:30.874Z,0.20
2022-10-14T12:20:02.173Z,0.13
2022-10-14T12:22:32.630Z,0.20
2022-10-14T12:25:01.075Z,0.20
2022-10-14T12:27:29.479Z,0.15
2022-10-14T12:29:58.275Z,0.10
2022-10-14T12:32:26.999Z,0.20
2022-10-14T12:34:56.722Z,0.20
2022-10-14T12:37:51.096Z,0.10
2022-10-14T12:40:28.774Z,0.20
2022-10-14T12:43:06.754Z,0.10
2022-10-14T12:45:35.731Z,0.20
2022-10-14T12:48:04.566Z,0.20
2022-10-14T12:50:36.586Z,0.20
2022-10-14T12:53:05.810Z,0.20
2022-10-14T12:55:40.036Z,0.20
2022-10-14T12:58:08.420Z,0.20
2022-10-14T13:00:38.228Z,0.20
2022-10-14T13:03:06.444Z,0.20
2022-10-14T13:05:36.219Z,0.17
2022-10-14T13:08:26.391Z,0.20
2022-10-14T13:11:09.008Z,0.10
2022-10-14T13:13:50.176Z,0.20
2022-10-14T13:16:50.654Z,0.10
2022-10-14T13:19:33.164Z,0.20
2022-10-14T13:22:02.102Z,0.10
2022-10-14T13:24:32.049Z,0.20
2022-10-14T13:27:08.597Z,0.25
2022-10-14T13:29:40.974Z,0.20
2022-10-14T13:32:15.968Z,0.10
2022-10-14T13:34:50.429Z,0.10
2022-10-14T13:37:29.036Z,0.20
2022-10-14T13:39:57.318Z,0.10
2022-10-14T13:42:27.661Z,0.20
2022-10-14T13:44:57.443Z,0.20
2022-10-14T13:47:25.343Z,0.10
2022-10-14T13:49:53.068Z,0.20
2022-10-14T13:52:25.677Z,0.20
2022-10-14T13:55:06.274Z,0.20
2022-10-14T13:58:11.621Z,0.20
2022-10-14T14:00:43.868Z,0.13
2022-10-14T14:03:17.690Z,0.20
2022-10-14T14:05:45.232Z,0.20
2022-10-14T14:08:37.179Z,0.20
2022-10-14T14:11:22.048Z,0.10
2022-10-14T14:13:58.886Z,0.10
2022-10-14T14:16:30.186Z,0.20
2022-10-14T14:19:13.843Z,0.20
2022-10-14T14:21:44.479Z,0.20
2022-10-14T14:24:19.599Z,0.13
2022-10-14T14:26:54.231Z,0.10
2022-10-14T14:29:26.407Z,0.20
2022-10-14T14:32:06.184Z,0.15
2022-10-14T14:34:35.508Z,0.20
2022-10-14T14:39:58.068Z,0.20
2022-10-14T14:42:25.892Z,0.20
2022-10-14T14:44:55.963Z,0.20
2022-10-14T14:47:23.998Z,0.20
2022-10-14T14:50:06.224Z,0.20
2022-10-14T14:52:44.728Z,0.20
2022-10-14T14:55:31.539Z,0.20
2022-10-14T14:58:01.849Z,0.20
2022-10-14T15:00:30.573Z,0.20
2022-10-14T15:03:00.330Z,0.20
2022-10-14T15:05:28.221Z,0.20
2022-10-14T15:07:56.051Z,0.20
2022-10-14T15:10:24.625Z,0.28
2022-10-14T15:12:53.913Z,0.20
2022-10-14T15:15:27.481Z,0.30
2022-10-14T15:18:07.701Z,0.20
2022-10-14T15:20:36.467Z,0.20
2022-10-14T15:23:19.182Z,0.20
2022-10-14T15:25:57.266Z,0.20
2022-10-14T15:28:31.607Z,0.20
2022-10-14T15:31:04.839Z,0.30
2022-10-14T15:33:33.442Z,0.30
2022-10-14T15:36:01.697Z,0.20
2022-10-14T15:41:04.046Z,0.20
2022-10-14T15:43:31.898Z,0.22
2022-10-14T15:46:18.266Z,0.10
2022-10-14T15:48:49.824Z,0.20
2022-10-14T15:51:18.187Z,0.20
2022-10-14T15:53:45.641Z,0.20
2022-10-14T15:56:13.196Z,0.20
2022-10-14T15:58:40.663Z,0.20
2022-10-14T16:01:08.672Z,0.20
2022-10-14T16:03:40.867Z,0.30
2022-10-14T16:06:12.089Z,0.20
2022-10-14T16:08:39.954Z,0.20
2022-10-14T16:11:10.666Z,0.25
2022-10-14T16:13:38.394Z,0.22
2022-10-14T16:16:07.009Z,0.30
2022-10-14T16:18:34.629Z,0.20
2022-10-14T16:21:02.374Z,0.20
2022-10-14T16:23:34.484Z,0.20
2022-10-14T16:26:02.140Z,0.30
2022-10-14T16:28:29.813Z,0.20
2022-10-14T16:30:57.418Z,0.30
2022-10-14T16:33:25.110Z,0.20
2022-10-14T16:35:54.345Z,0.20
2022-10-14T16:38:22.166Z,0.22
2022-10-14T16:40:56.110Z,0.20
2022-10-14T16:43:23.906Z,0.25
2022-10-14T16:45:51.628Z,0.20
2022-10-14T16:48:19.350Z,0.28
2022-10-14T16:50:53.891Z,0.30
2022-10-14T16:53:40.650Z,0.30
2022-10-14T16:56:26.072Z,0.20
2022-10-14T16:58:53.527Z,0.22
2022-10-14T17:01:22.095Z,0.30
2022-10-14T17:03:49.576Z,0.20
2022-10-14T17:06:21.705Z,0.25
2022-10-14T17:08:51.620Z,0.30
2022-10-14T17:11:20.579Z,0.20
2022-10-14T17:13:48.241Z,0.20
2022-10-14T17:16:15.719Z,0.20
2022-10-14T17:18:43.622Z,0.20
2022-10-14T17:21:14.111Z,0.25
2022-10-14T17:23:42.291Z,0.20
2022-10-14T17:26:10.825Z,0.30
2022-10-14T17:28:40.070Z,0.20
2022-10-14T17:31:08.537Z,0.20
2022-10-14T17:33:36.017Z,0.20
2022-10-14T17:36:04.472Z,0.20
2022-10-14T17:38:31.972Z,0.20
2022-10-14T17:41:02.340Z,0.20
2022-10-14T17:43:32.761Z,0.25
2022-10-14T17:46:05.028Z,0.20
2022-10-14T17:48:32.585Z,0.30
2022-10-14T17:51:00.280Z,0.25
2022-10-14T17:53:27.863Z,0.30
2022-10-14T17:55:57.740Z,0.30
2022-10-14T17:58:25.775Z,0.30
2022-10-14T18:00:53.263Z,0.20
2022-10-14T18:03:22.122Z,0.20
2022-10-14T18:05:49.647Z,0.20
2022-10-14T18:08:17.181Z,0.28
2022-10-14T18:10:44.677Z,0.30
2022-10-14T18:13:12.165Z,0.20
2022-10-14T18:15:39.594Z,0.30
2022-10-14T18:18:08.213Z,0.30
2022-10-14T18:20:38.110Z,0.25
2022-10-14T18:23:07.519Z,0.20
2022-10-14T18:25:35.213Z,0.30
2022-10-14T18:28:02.705Z,0.30
2022-10-14T18:30:30.285Z,0.30
2022-10-14T18:32:57.914Z,0.30
2022-10-14T18:35:25.352Z,0.28
2022-10-14T18:37:54.270Z,0.20
2022-10-14T18:40:22.002Z,0.30
2022-10-14T18:42:49.509Z,0.20
2022-10-14T18:45:16.971Z,0.28
2022-10-14T18:47:45.035Z,0.20
2022-10-14T18:50:12.500Z,0.30
2022-10-14T18:52:40.363Z,0.30
2022-10-14T18:55:10.004Z,0.30
2022-10-14T18:57:38.365Z,0.20
2022-10-14T19:00:09.334Z,0.28
2022-10-14T19:02:39.725Z,0.30
2022-10-14T19:05:07.641Z,0.30
2022-10-14T19:07:35.085Z,0.30
2022-10-14T19:10:02.590Z,0.30
2022-10-14T19:12:43.619Z,0.20
2022-10-14T19:15:11.541Z,0.30
2022-10-14T19:17:39.113Z,0.30
2022-10-14T19:20:08.331Z,0.30
2022-10-14T19:22:40.726Z,0.20
2022-10-14T19:25:08.877Z,0.20
2022-10-14T19:27:37.730Z,0.30
2022-10-14T19:30:05.668Z,0.30
2022-10-14T19:32:33.138Z,0.30
2022-10-14T19:35:01.452Z,0.30
2022-10-14T19:37:29.087Z,0.30
2022-10-14T19:39:56.572Z,0.20
2022-10-14T19:42:24.111Z,0.22
2022-10-14T19:44:52.983Z,0.30
2022-10-14T19:47:20.787Z,0.20
2022-10-14T19:49:48.443Z,0.20
2022-10-14T19:52:15.895Z,0.30
2022-10-14T19:54:43.438Z,0.20
2022-10-14T19:57:10.936Z,0.20
2022-10-14T19:59:38.388Z,0.30
2022-10-14T20:02:07.235Z,0.30
2022-10-14T20:04:34.827Z,0.30
2022-10-14T20:07:02.279Z,0.30
2022-10-14T20:09:29.780Z,0.22
2022-10-14T20:11:57.223Z,0.20
2022-10-14T20:14:25.678Z,0.30
2022-10-14T20:16:55.812Z,0.20
2022-10-14T20:19:24.865Z,0.20
2022-10-14T20:21:52.278Z,0.22
2022-10-14T20:24:19.780Z,0.30
2022-10-14T20:26:47.272Z,0.20
2022-10-14T20:29:14.733Z,0.20
2022-10-14T20:31:42.205Z,0.20
2022-10-14T20:34:10.391Z,0.30
2022-10-14T20:36:40.313Z,0.30
2022-10-14T20:39:09.146Z,0.22
2022-10-14T20:41:36.673Z,0.30
2022-10-14T20:44:04.405Z,0.20
2022-10-14T20:46:31.858Z,0.30
2022-10-14T20:48:59.413Z,0.30
2022-10-14T20:51:27.103Z,0.30
2022-10-14T20:54:02.746Z,0.30
2022-10-14T20:56:32.329Z,0.30
2022-10-14T20:59:00.578Z,0.30
2022-10-14T21:01:29.171Z,0.20
2022-10-14T21:03:56.834Z,0.30
2022-10-14T21:06:25.418Z,0.20
2022-10-14T21:08:53.097Z,0.20
2022-10-14T21:11:22.876Z,0.25
2022-10-14T21:13:51.180Z,0.30
2022-10-14T21:16:21.139Z,0.22
2022-10-14T21:18:52.415Z,0.20
2022-10-14T21:21:25.400Z,0.30
2022-10-14T21:23:52.891Z,0.20
2022-10-14T21:26:21.707Z,0.30
2022-10-14T21:28:49.292Z,0.25
2022-10-14T21:31:18.975Z,0.30
2022-10-14T21:33:47.015Z,0.30
2022-10-14T21:36:15.841Z,0.25
2022-10-14T21:38:43.444Z,0.28
2022-10-14T21:41:11.193Z,0.30
2022-10-14T21:43:40.237Z,0.30
2022-10-14T21:46:08.364Z,0.30
2022-10-14T21:48:35.939Z,0.20
2022-10-14T21:51:06.347Z,0.30
2022-10-14T21:53:36.385Z,0.30
2022-10-14T21:56:04.456Z,0.20
2022-10-14T21:58:32.221Z,0.20
2022-10-14T22:01:05.870Z,0.30
2022-10-14T22:03:33.684Z,0.30
2022-10-14T22:06:01.498Z,0.30
2022-10-14T22:08:32.049Z,0.30
2022-10-14T22:10:59.809Z,0.20
2022-10-14T22:13:27.630Z,0.30
2022-10-14T22:15:55.161Z,0.30
2022-10-14T22:18:24.233Z,0.30
2022-10-14T22:20:52.187Z,0.30
2022-10-14T22:23:19.718Z,0.30
2022-10-14T22:25:47.194Z,0.30
2022-10-14T22:28:14.638Z,0.30
2022-10-14T22:30:42.126Z,0.30
2022-10-14T22:33:09.560Z,0.30
2022-10-14T22:35:38.400Z,0.30
2022-10-14T22:38:05.819Z,0.30
2022-10-14T22:40:34.498Z,0.30
2022-10-14T22:43:01.965Z,0.30
2022-10-14T22:45:29.380Z,0.30
2022-10-14T22:47:56.842Z,0.30
2022-10-14T22:50:24.418Z,0.30
2022-10-14T22:52:53.265Z,0.40
2022-10-14T22:55:20.783Z,0.30
2022-10-14T22:57:48.257Z,0.38
2022-10-14T23:00:16.287Z,0.30
2022-10-14T23:02:43.770Z,0.30
2022-10-14T23:05:11.269Z,0.30
2022-10-14T23:07:40.719Z,0.30
2022-10-14T23:10:10.218Z,0.30
2022-10-14T23:12:37.876Z,0.30
2022-10-14T23:15:05.555Z,0.30
2022-10-14T23:17:33.062Z,0.30
2022-10-14T23:20:00.630Z,0.22
2022-10-14T23:22:28.248Z,0.30
2022-10-14T23:24:55.686Z,0.30
2022-10-14T23:27:24.473Z,0.30
2022-10-14T23:29:51.967Z,0.20
2022-10-14T23:34:51.837Z,0.30
2022-10-14T23:37:19.332Z,0.30
2022-10-14T23:39:47.024Z,0.30
2022-10-14T23:42:14.530Z,0.20
2022-10-14T23:44:43.354Z,0.30
2022-10-14T23:47:11.038Z,0.30
2022-10-14T23:49:38.506Z,0.30
2022-10-14T23:52:05.909Z,0.20
2022-10-14T23:54:33.400Z,0.30
2022-10-14T23:57:00.883Z,0.30
2022-10-14T23:59:28.368Z,0.38
